sensor_id;sensor_type;location;lat;lon;timestamp;pressure;altitude;pressure_sealevel;temperature;humidity
38227;BME280;24026;49.446;8.576;2022-10-16T00:00:01;100289.66;;;17.84;74.27
38227;BME280;24026;49.446;8.576;2022-10-16T00:02:21;100289.34;;;17.86;74.12
38227;BME280;24026;49.446;8.576;2022-10-16T00:04:42;100284.78;;;17.86;74.27
38227;BME280;24026;49.446;8.576;2022-10-16T00:07:02;100292.03;;;17.86;74.15
38227;BME280;24026;49.446;8.576;2022-10-16T00:09:22;100285.84;;;17.85;74.22
38227;BME280;24026;49.446;8.576;2022-10-16T00:11:43;100281.59;;;17.84;74.11
38227;BME280;24026;49.446;8.576;2022-10-16T00:14:12;100278.91;;;17.84;74.46
38227;BME280;24026;49.446;8.576;2022-10-16T00:16:33;100275.09;;;17.85;74.48
38227;BME280;24026;49.446;8.576;2022-10-16T00:18:54;100270.84;;;17.84;74.48
38227;BME280;24026;49.446;8.576;2022-10-16T00:21:18;100275.41;;;17.84;74.38
38227;BME280;24026;49.446;8.576;2022-10-16T00:23:39;100275.41;;;17.84;74.60
38227;BME280;24026;49.446;8.576;2022-10-16T00:26:02;100280.78;;;17.84;74.46
38227;BME280;24026;49.446;8.576;2022-10-16T00:28:23;100285.34;;;17.83;74.26
38227;BME280;24026;49.446;8.576;2022-10-16T00:30:43;100295.03;;;17.84;74.40
38227;BME280;24026;49.446;8.576;2022-10-16T00:33:04;100285.06;;;17.85;74.62
38227;BME280;24026;49.446;8.576;2022-10-16T00:35:24;100290.44;;;17.85;74.21
38227;BME280;24026;49.446;8.576;2022-10-16T00:37:45;100289.66;;;17.84;74.27
38227;BME280;24026;49.446;8.576;2022-10-16T00:40:05;100289.94;;;17.83;74.43
38227;BME280;24026;49.446;8.576;2022-10-16T00:42:26;100295.31;;;17.83;74.26
38227;BME280;24026;49.446;8.576;2022-10-16T00:44:52;100301.50;;;17.83;74.20
38227;BME280;24026;49.446;8.576;2022-10-16T00:49:50;100303.09;;;17.84;74.44
38227;BME280;24026;49.446;8.576;2022-10-16T00:52:13;100307.66;;;17.84;74.29
38227;BME280;24026;49.446;8.576;2022-10-16T00:54:34;100317.63;;;17.83;74.21
38227;BME280;24026;49.446;8.576;2022-10-16T00:56:57;100309.56;;;17.83;74.16
38227;BME280;24026;49.446;8.576;2022-10-16T00:59:25;100306.88;;;17.83;74.16
38227;BME280;24026;49.446;8.576;2022-10-16T01:01:46;100308.47;;;17.84;74.31
38227;BME280;24026;49.446;8.576;2022-10-16T01:04:06;100309.25;;;17.85;74.36
38227;BME280;24026;49.446;8.576;2022-10-16T01:06:38;100302.56;;;17.82;74.43
38227;BME280;24026;49.446;8.576;2022-10-16T01:09:14;100304.97;;;17.84;74.42
38227;BME280;24026;49.446;8.576;2022-10-16T01:14:23;100300.16;;;17.81;74.45
38227;BME280;24026;49.446;8.576;2022-10-16T01:16:58;100296.41;;;17.82;74.26
38227;BME280;24026;49.446;8.576;2022-10-16T01:22:25;100308.75;;;17.83;74.47
38227;BME280;24026;49.446;8.576;2022-10-16T01:24:54;100316.00;;;17.82;74.42
38227;BME280;24026;49.446;8.576;2022-10-16T01:27:21;100321.91;;;17.84;74.11
38227;BME280;24026;49.446;8.576;2022-10-16T01:32:17;100318.69;;;17.82;74.33
38227;BME280;24026;49.446;8.576;2022-10-16T01:35:05;100316.81;;;17.83;74.39
38227;BME280;24026;49.446;8.576;2022-10-16T01:38:22;100316.81;;;17.83;74.40
38227;BME280;24026;49.446;8.576;2022-10-16T01:40:19;100321.38;;;17.82;74.26
38227;BME280;24026;49.446;8.576;2022-10-16T01:43:02;100323.28;;;17.82;74.15
38227;BME280;24026;49.446;8.576;2022-10-16T01:45:23;100326.75;;;17.82;74.42
38227;BME280;24026;49.446;8.576;2022-10-16T01:47:44;100325.69;;;17.83;74.60
38227;BME280;24026;49.446;8.576;2022-10-16T01:50:07;100329.44;;;17.82;74.39
38227;BME280;24026;49.446;8.576;2022-10-16T01:52:29;100327.56;;;17.83;74.25
38227;BME280;24026;49.446;8.576;2022-10-16T01:54:51;100348.25;;;17.82;74.47
38227;BME280;24026;49.446;8.576;2022-10-16T01:57:14;100345.56;;;17.82;74.32
38227;BME280;24026;49.446;8.576;2022-10-16T01:59:39;100335.66;;;17.83;74.31
38227;BME280;24026;49.446;8.576;2022-10-16T02:02:05;100325.19;;;17.81;74.40
38227;BME280;24026;49.446;8.576;2022-10-16T02:04:30;100327.88;;;17.81;74.36
38227;BME280;24026;49.446;8.576;2022-10-16T02:06:52;100332.97;;;17.83;74.31
38227;BME280;24026;49.446;8.576;2022-10-16T02:09:13;100328.38;;;17.83;74.04
38227;BME280;24026;49.446;8.576;2022-10-16T02:11:35;100326.75;;;17.82;74.09
38227;BME280;24026;49.446;8.576;2022-10-16T02:14:03;100322.19;;;17.83;74.42
38227;BME280;24026;49.446;8.576;2022-10-16T02:16:36;100327.56;;;17.83;74.10
38227;BME280;24026;49.446;8.576;2022-10-16T02:18:57;100336.72;;;17.82;74.16
38227;BME280;24026;49.446;8.576;2022-10-16T02:21:30;100329.44;;;17.82;73.97
38227;BME280;24026;49.446;8.576;2022-10-16T02:24:05;100330.56;;;17.81;74.26
38227;BME280;24026;49.446;8.576;2022-10-16T02:26:35;100334.03;;;17.82;74.34
38227;BME280;24026;49.446;8.576;2022-10-16T02:29:01;100328.38;;;17.83;74.05
38227;BME280;24026;49.446;8.576;2022-10-16T02:31:28;100322.50;;;17.81;74.37
38227;BME280;24026;49.446;8.576;2022-10-16T02:33:51;100326.75;;;17.82;74.15
38227;BME280;24026;49.446;8.576;2022-10-16T02:36:13;100319.81;;;17.81;73.98
38227;BME280;24026;49.446;8.576;2022-10-16T02:38:33;100318.19;;;17.80;74.28
38227;BME280;24026;49.446;8.576;2022-10-16T02:40:54;100322.19;;;17.83;74.22
38227;BME280;24026;49.446;8.576;2022-10-16T02:43:15;100324.38;;;17.81;74.11
38227;BME280;24026;49.446;8.576;2022-10-16T02:45:36;100320.88;;;17.80;74.02
38227;BME280;24026;49.446;8.576;2022-10-16T02:47:56;100317.13;;;17.81;73.89
38227;BME280;24026;49.446;8.576;2022-10-16T02:50:17;100316.28;;;17.81;74.27
38227;BME280;24026;49.446;8.576;2022-10-16T02:52:37;100319.81;;;17.81;74.09
38227;BME280;24026;49.446;8.576;2022-10-16T02:54:58;100322.78;;;17.80;74.34
38227;BME280;24026;49.446;8.576;2022-10-16T02:57:18;100334.81;;;17.82;74.17
38227;BME280;24026;49.446;8.576;2022-10-16T02:59:39;100326.75;;;17.82;74.17
38227;BME280;24026;49.446;8.576;2022-10-16T03:01:59;100348.56;;;17.81;74.49
38227;BME280;24026;49.446;8.576;2022-10-16T03:04:19;100349.38;;;17.81;74.06
38227;BME280;24026;49.446;8.576;2022-10-16T03:06:40;100350.16;;;17.82;74.35
38227;BME280;24026;49.446;8.576;2022-10-16T03:09:00;100352.84;;;17.82;74.30
38227;BME280;24026;49.446;8.576;2022-10-16T03:11:20;100345.88;;;17.81;74.43
38227;BME280;24026;49.446;8.576;2022-10-16T03:13:41;100341.31;;;17.81;73.99
38227;BME280;24026;49.446;8.576;2022-10-16T03:16:01;100334.31;;;17.80;74.20
38227;BME280;24026;49.446;8.576;2022-10-16T03:18:22;100328.94;;;17.80;74.30
38227;BME280;24026;49.446;8.576;2022-10-16T03:20:43;100338.09;;;17.79;74.22
38227;BME280;24026;49.446;8.576;2022-10-16T03:23:03;100334.31;;;17.80;74.13
38227;BME280;24026;49.446;8.576;2022-10-16T03:25:24;100340.50;;;17.81;74.20
38227;BME280;24026;49.446;8.576;2022-10-16T03:27:44;100328.16;;;17.80;74.38
38227;BME280;24026;49.446;8.576;2022-10-16T03:30:05;100347.75;;;17.80;74.19
38227;BME280;24026;49.446;8.576;2022-10-16T03:32:25;100342.38;;;17.80;74.21
38227;BME280;24026;49.446;8.576;2022-10-16T03:34:46;100337.00;;;17.80;74.07
38227;BME280;24026;49.446;8.576;2022-10-16T03:37:06;100331.63;;;17.80;74.04
38227;BME280;24026;49.446;8.576;2022-10-16T03:39:26;100334.59;;;17.78;74.38
38227;BME280;24026;49.446;8.576;2022-10-16T03:41:47;100325.75;;;17.78;74.14
38227;BME280;24026;49.446;8.576;2022-10-16T03:44:07;100332.72;;;17.79;74.23
38227;BME280;24026;49.446;8.576;2022-10-16T03:46:28;100335.41;;;17.79;74.04
38227;BME280;24026;49.446;8.576;2022-10-16T03:48:48;100342.69;;;17.78;74.39
38227;BME280;24026;49.446;8.576;2022-10-16T03:51:09;100345.38;;;17.78;74.29
38227;BME280;24026;49.446;8.576;2022-10-16T03:53:29;100344.56;;;17.78;74.38
38227;BME280;24026;49.446;8.576;2022-10-16T03:55:50;100348.06;;;17.78;74.23
38227;BME280;24026;49.446;8.576;2022-10-16T03:58:10;100346.16;;;17.79;74.05
38227;BME280;24026;49.446;8.576;2022-10-16T04:00:31;100351.84;;;17.77;74.20
38227;BME280;24026;49.446;8.576;2022-10-16T04:02:51;100362.59;;;17.77;74.06
38227;BME280;24026;49.446;8.576;2022-10-16T04:05:12;100360.69;;;17.78;74.13
38227;BME280;24026;49.446;8.576;2022-10-16T04:07:32;100363.38;;;17.78;74.40
38227;BME280;24026;49.446;8.576;2022-10-16T04:09:52;100359.59;;;17.79;73.96
38227;BME280;24026;49.446;8.576;2022-10-16T04:12:13;100359.59;;;17.79;74.28
38227;BME280;24026;49.446;8.576;2022-10-16T04:14:33;100363.38;;;17.78;74.11
38227;BME280;24026;49.446;8.576;2022-10-16T04:16:54;100362.59;;;17.77;74.20
38227;BME280;24026;49.446;8.576;2022-10-16T04:19:14;100367.16;;;17.77;74.22
38227;BME280;24026;49.446;8.576;2022-10-16T04:21:34;100360.69;;;17.78;74.32
38227;BME280;24026;49.446;8.576;2022-10-16T04:23:55;100359.91;;;17.77;74.06
38227;BME280;24026;49.446;8.576;2022-10-16T04:26:15;100367.97;;;17.77;74.16
38227;BME280;24026;49.446;8.576;2022-10-16T04:28:36;100377.63;;;17.78;74.03
38227;BME280;24026;49.446;8.576;2022-10-16T04:30:56;100382.19;;;17.78;74.08
38227;BME280;24026;49.446;8.576;2022-10-16T04:33:17;100391.06;;;17.78;74.01
38227;BME280;24026;49.446;8.576;2022-10-16T04:35:37;100385.69;;;17.78;73.95
38227;BME280;24026;49.446;8.576;2022-10-16T04:37:58;100380.31;;;17.78;74.43
38227;BME280;24026;49.446;8.576;2022-10-16T04:40:18;100368.75;;;17.78;74.32
38227;BME280;24026;49.446;8.576;2022-10-16T04:42:39;100380.31;;;17.78;73.95
38227;BME280;24026;49.446;8.576;2022-10-16T04:44:59;100377.91;;;17.77;74.23
38227;BME280;24026;49.446;8.576;2022-10-16T04:47:19;100384.88;;;17.78;74.02
38227;BME280;24026;49.446;8.576;2022-10-16T04:49:40;100374.13;;;17.78;74.21
38227;BME280;24026;49.446;8.576;2022-10-16T04:52:00;100368.75;;;17.78;74.28
38227;BME280;24026;49.446;8.576;2022-10-16T04:54:20;100367.16;;;17.77;74.03
38227;BME280;24026;49.446;8.576;2022-10-16T04:56:41;100372.53;;;17.77;73.96
38227;BME280;24026;49.446;8.576;2022-10-16T04:59:07;100371.75;;;17.76;73.95
38227;BME280;24026;49.446;8.576;2022-10-16T05:01:27;100367.97;;;17.77;74.39
38227;BME280;24026;49.446;8.576;2022-10-16T05:03:48;100361.00;;;17.76;74.21
38227;BME280;24026;49.446;8.576;2022-10-16T05:06:08;100369.06;;;17.76;73.88
38227;BME280;24026;49.446;8.576;2022-10-16T05:08:28;100367.16;;;17.77;73.98
38227;BME280;24026;49.446;8.576;2022-10-16T05:10:49;100370.94;;;17.76;73.90
38227;BME280;24026;49.446;8.576;2022-10-16T05:13:10;100376.31;;;17.76;74.23
38227;BME280;24026;49.446;8.576;2022-10-16T05:15:31;100379.00;;;17.76;73.88
38227;BME280;24026;49.446;8.576;2022-10-16T05:17:53;100374.44;;;17.76;74.25
38227;BME280;24026;49.446;8.576;2022-10-16T05:20:13;100370.13;;;17.75;74.18
38227;BME280;24026;49.446;8.576;2022-10-16T05:22:34;100373.34;;;17.77;73.89
38227;BME280;24026;49.446;8.576;2022-10-16T05:24:54;100368.25;;;17.76;74.02
38227;BME280;24026;49.446;8.576;2022-10-16T05:27:15;100366.66;;;17.75;73.94
38227;BME280;24026;49.446;8.576;2022-10-16T05:29:39;100364.75;;;17.75;74.16
38227;BME280;24026;49.446;8.576;2022-10-16T05:31:59;100362.88;;;17.76;74.42
38227;BME280;24026;49.446;8.576;2022-10-16T05:34:20;100363.16;;;17.74;73.96
38227;BME280;24026;49.446;8.576;2022-10-16T05:36:40;100366.94;;;17.73;74.13
38227;BME280;24026;49.446;8.576;2022-10-16T05:39:01;100363.97;;;17.75;74.01
38227;BME280;24026;49.446;8.576;2022-10-16T05:41:21;100363.97;;;17.75;73.91
38227;BME280;24026;49.446;8.576;2022-10-16T05:43:43;100367.72;;;17.74;73.92
38227;BME280;24026;49.446;8.576;2022-10-16T05:46:05;100367.44;;;17.75;73.96
38227;BME280;24026;49.446;8.576;2022-10-16T05:48:26;100361.56;;;17.73;74.15
38227;BME280;24026;49.446;8.576;2022-10-16T05:50:46;100370.41;;;17.74;74.18
38227;BME280;24026;49.446;8.576;2022-10-16T05:53:07;100387.38;;;17.74;74.01
38227;BME280;24026;49.446;8.576;2022-10-16T05:55:27;100397.00;;;17.75;73.85
38227;BME280;24026;49.446;8.576;2022-10-16T05:57:47;100406.19;;;17.74;74.14
38227;BME280;24026;49.446;8.576;2022-10-16T06:00:08;100400.81;;;17.74;73.86
38227;BME280;24026;49.446;8.576;2022-10-16T06:02:29;100396.22;;;17.75;73.89
38227;BME280;24026;49.446;8.576;2022-10-16T06:04:51;100396.22;;;17.75;73.93
38227;BME280;24026;49.446;8.576;2022-10-16T06:07:13;100390.84;;;17.75;74.01
38227;BME280;24026;49.446;8.576;2022-10-16T06:09:34;100390.06;;;17.74;73.79
38227;BME280;24026;49.446;8.576;2022-10-16T06:11:54;100393.03;;;17.73;74.14
38227;BME280;24026;49.446;8.576;2022-10-16T06:14:15;100401.88;;;17.73;73.94
38227;BME280;24026;49.446;8.576;2022-10-16T06:16:36;100402.66;;;17.74;74.09
38227;BME280;24026;49.446;8.576;2022-10-16T06:18:57;100408.88;;;17.74;74.11
38227;BME280;24026;49.446;8.576;2022-10-16T06:21:21;100415.03;;;17.75;74.09
38227;BME280;24026;49.446;8.576;2022-10-16T06:23:42;100425.00;;;17.74;73.69
38227;BME280;24026;49.446;8.576;2022-10-16T06:26:11;100421.19;;;17.75;74.23
38227;BME280;24026;49.446;8.576;2022-10-16T06:28:31;100422.31;;;17.74;73.86
38227;BME280;24026;49.446;8.576;2022-10-16T06:30:59;100423.88;;;17.75;73.99
38227;BME280;24026;49.446;8.576;2022-10-16T06:33:19;100419.63;;;17.74;74.06
38227;BME280;24026;49.446;8.576;2022-10-16T06:35:40;100424.16;;;17.74;74.07
38227;BME280;24026;49.446;8.576;2022-10-16T06:38:00;100427.69;;;17.74;73.98
38227;BME280;24026;49.446;8.576;2022-10-16T06:40:21;100432.22;;;17.74;73.86
38227;BME280;24026;49.446;8.576;2022-10-16T06:42:41;100426.84;;;17.74;74.13
38227;BME280;24026;49.446;8.576;2022-10-16T06:45:02;100426.84;;;17.74;74.21
38227;BME280;24026;49.446;8.576;2022-10-16T06:47:22;100431.44;;;17.73;74.04
38227;BME280;24026;49.446;8.576;2022-10-16T06:49:43;100449.19;;;17.74;73.83
38227;BME280;24026;49.446;8.576;2022-10-16T06:52:03;100441.41;;;17.73;74.10
38227;BME280;24026;49.446;8.576;2022-10-16T06:54:24;100448.38;;;17.74;73.69
38227;BME280;24026;49.446;8.576;2022-10-16T06:56:45;100451.34;;;17.72;73.79
38227;BME280;24026;49.446;8.576;2022-10-16T06:59:06;100459.41;;;17.72;74.29
38227;BME280;24026;49.446;8.576;2022-10-16T07:01:26;100464.50;;;17.74;73.95
38227;BME280;24026;49.446;8.576;2022-10-16T07:03:47;100473.66;;;17.73;74.07
38227;BME280;24026;49.446;8.576;2022-10-16T07:06:09;100479.53;;;17.75;73.84
38227;BME280;24026;49.446;8.576;2022-10-16T07:08:32;100477.94;;;17.74;74.08
38227;BME280;24026;49.446;8.576;2022-10-16T07:11:01;100479.81;;;17.73;73.68
38227;BME280;24026;49.446;8.576;2022-10-16T07:13:21;100482.22;;;17.75;73.65
38227;BME280;24026;49.446;8.576;2022-10-16T07:15:41;100491.38;;;17.74;73.81
38227;BME280;24026;49.446;8.576;2022-10-16T07:18:02;100491.09;;;17.75;73.81
38227;BME280;24026;49.446;8.576;2022-10-16T07:20:22;100499.16;;;17.75;74.09
38227;BME280;24026;49.446;8.576;2022-10-16T07:22:43;100500.25;;;17.74;73.80
38227;BME280;24026;49.446;8.576;2022-10-16T07:25:03;100507.22;;;17.75;73.90
38227;BME280;24026;49.446;8.576;2022-10-16T07:27:24;100510.72;;;17.76;73.92
38227;BME280;24026;49.446;8.576;2022-10-16T07:29:44;100508.03;;;17.76;73.90
38227;BME280;24026;49.446;8.576;2022-10-16T07:32:05;100506.94;;;17.77;73.72
38227;BME280;24026;49.446;8.576;2022-10-16T07:34:25;100521.47;;;17.76;73.73
38227;BME280;24026;49.446;8.576;2022-10-16T07:36:49;100518.50;;;17.77;74.00
38227;BME280;24026;49.446;8.576;2022-10-16T07:39:10;100519.06;;;17.74;73.94
38227;BME280;24026;49.446;8.576;2022-10-16T07:41:30;100525.75;;;17.77;73.79
38227;BME280;24026;49.446;8.576;2022-10-16T07:43:53;100524.94;;;17.76;73.96
38227;BME280;24026;49.446;8.576;2022-10-16T07:46:15;100527.63;;;17.76;74.13
38227;BME280;24026;49.446;8.576;2022-10-16T07:48:36;100535.41;;;17.78;73.73
38227;BME280;24026;49.446;8.576;2022-10-16T07:51:01;100539.41;;;17.81;73.74
38227;BME280;24026;49.446;8.576;2022-10-16T07:53:22;100535.41;;;17.78;73.72
38227;BME280;24026;49.446;8.576;2022-10-16T07:55:42;100544.78;;;17.81;73.79
38227;BME280;24026;49.446;8.576;2022-10-16T07:58:03;100541.31;;;17.80;73.54
38227;BME280;24026;49.446;8.576;2022-10-16T08:00:24;100537.25;;;17.83;73.94
38227;BME280;24026;49.446;8.576;2022-10-16T08:02:44;100536.72;;;17.81;73.68
38227;BME280;24026;49.446;8.576;2022-10-16T08:05:05;100536.72;;;17.81;73.93
38227;BME280;24026;49.446;8.576;2022-10-16T08:07:26;100541.81;;;17.82;73.65
38227;BME280;24026;49.446;8.576;2022-10-16T08:09:49;100548.00;;;17.83;73.87
38227;BME280;24026;49.446;8.576;2022-10-16T08:12:10;100555.78;;;17.84;73.81
38227;BME280;24026;49.446;8.576;2022-10-16T08:14:31;100550.41;;;17.84;73.31
38227;BME280;24026;49.446;8.576;2022-10-16T08:16:51;100554.69;;;17.85;73.71
38227;BME280;24026;49.446;8.576;2022-10-16T08:19:11;100562.75;;;17.85;73.56
38227;BME280;24026;49.446;8.576;2022-10-16T08:21:32;100556.28;;;17.86;73.71
38227;BME280;24026;49.446;8.576;2022-10-16T08:23:53;100553.59;;;17.86;73.71
38227;BME280;24026;49.446;8.576;2022-10-16T08:26:14;100557.38;;;17.85;73.29
38227;BME280;24026;49.446;8.576;2022-10-16T08:28:35;100558.16;;;17.86;73.71
38227;BME280;24026;49.446;8.576;2022-10-16T08:30:56;100554.44;;;17.87;73.72
38227;BME280;24026;49.446;8.576;2022-10-16T08:33:19;100566.78;;;17.88;73.50
38227;BME280;24026;49.446;8.576;2022-10-16T08:35:39;100575.94;;;17.87;73.81
38227;BME280;24026;49.446;8.576;2022-10-16T08:38:00;100569.50;;;17.88;73.38
38227;BME280;24026;49.446;8.576;2022-10-16T08:40:26;100572.97;;;17.88;73.73
38227;BME280;24026;49.446;8.576;2022-10-16T08:43:00;100569.19;;;17.89;73.48
38227;BME280;24026;49.446;8.576;2022-10-16T08:48:17;100567.81;;;17.92;73.17
38227;BME280;24026;49.446;8.576;2022-10-16T08:50:39;100568.91;;;17.91;73.61
38227;BME280;24026;49.446;8.576;2022-10-16T08:53:00;100584.75;;;17.92;73.63
38227;BME280;24026;49.446;8.576;2022-10-16T08:55:33;100593.91;;;17.91;73.41
38227;BME280;24026;49.446;8.576;2022-10-16T08:57:57;100630.16;;;17.94;73.38
38227;BME280;24026;49.446;8.576;2022-10-16T09:00:18;100665.66;;;17.96;73.23
38227;BME280;24026;49.446;8.576;2022-10-16T09:03:14;100680.41;;;17.99;73.38
38227;BME280;24026;49.446;8.576;2022-10-16T09:13:29;100648.13;;;17.99;72.97
38227;BME280;24026;49.446;8.576;2022-10-16T09:16:12;100635.47;;;17.99;73.11
38227;BME280;24026;49.446;8.576;2022-10-16T09:18:43;100645.97;;;18.01;73.19
38227;BME280;24026;49.446;8.576;2022-10-16T09:21:15;100655.13;;;18.00;73.16
38227;BME280;24026;49.446;8.576;2022-10-16T09:23:37;100652.66;;;18.03;73.04
38227;BME280;24026;49.446;8.576;2022-10-16T09:25:58;100656.16;;;18.04;73.14
38227;BME280;24026;49.446;8.576;2022-10-16T09:28:19;100658.56;;;18.05;72.99
38227;BME280;24026;49.446;8.576;2022-10-16T09:30:40;100649.41;;;18.06;72.85
38227;BME280;24026;49.446;8.576;2022-10-16T09:33:01;100650.22;;;18.07;72.85
38227;BME280;24026;49.446;8.576;2022-10-16T09:35:35;100643.47;;;18.09;72.90
38227;BME280;24026;49.446;8.576;2022-10-16T09:37:56;100653.41;;;18.09;72.76
38227;BME280;24026;49.446;8.576;2022-10-16T09:40:34;100648.56;;;18.11;72.77
38227;BME280;24026;49.446;8.576;2022-10-16T09:45:40;100643.13;;;18.16;72.47
38227;BME280;24026;49.446;8.576;2022-10-16T09:48:10;100652.22;;;18.20;72.37
38227;BME280;24026;49.446;8.576;2022-10-16T09:50:31;100649.47;;;18.25;72.59
38227;BME280;24026;49.446;8.576;2022-10-16T09:53:10;100649.47;;;18.25;72.72
38227;BME280;24026;49.446;8.576;2022-10-16T09:55:31;100642.50;;;18.24;72.65
38227;BME280;24026;49.446;8.576;2022-10-16T09:57:52;100652.16;;;18.25;72.95
38227;BME280;24026;49.446;8.576;2022-10-16T10:00:16;100648.09;;;18.28;72.65
38227;BME280;24026;49.446;8.576;2022-10-16T10:02:38;100657.75;;;18.29;72.58
38227;BME280;24026;49.446;8.576;2022-10-16T10:04:58;100658.28;;;18.31;72.78
38227;BME280;24026;49.446;8.576;2022-10-16T10:07:32;100661.00;;;18.31;72.43
38227;BME280;24026;49.446;8.576;2022-10-16T10:09:56;100655.28;;;18.32;72.58
38227;BME280;24026;49.446;8.576;2022-10-16T10:12:37;100652.59;;;18.32;72.85
38227;BME280;24026;49.446;8.576;2022-10-16T10:15:04;100655.84;;;18.35;72.82
38227;BME280;24026;49.446;8.576;2022-10-16T10:17:27;100663.91;;;18.35;72.83
38227;BME280;24026;49.446;8.576;2022-10-16T10:24:41;100668.72;;;18.38;72.58
38227;BME280;24026;49.446;8.576;2022-10-16T10:27:14;100664.63;;;18.40;72.71
38227;BME280;24026;49.446;8.576;2022-10-16T10:30:01;100661.66;;;18.42;72.46
38227;BME280;24026;49.446;8.576;2022-10-16T10:32:44;100658.69;;;18.43;72.42
38227;BME280;24026;49.446;8.576;2022-10-16T10:35:17;100654.91;;;18.44;72.58
38227;BME280;24026;49.446;8.576;2022-10-16T10:43:27;100657.47;;;18.55;72.32
38227;BME280;24026;49.446;8.576;2022-10-16T10:45:54;100660.38;;;18.58;72.19
38227;BME280;24026;49.446;8.576;2022-10-16T10:51:08;100649.56;;;18.63;72.18
38227;BME280;24026;49.446;8.576;2022-10-16T10:53:42;100643.59;;;18.66;71.71
38227;BME280;24026;49.446;8.576;2022-10-16T10:56:19;100643.31;;;18.68;72.11
38227;BME280;24026;49.446;8.576;2022-10-16T11:01:41;100649.41;;;18.74;71.83
38227;BME280;24026;49.446;8.576;2022-10-16T11:06:45;100642.38;;;18.78;71.90
38227;BME280;24026;49.446;8.576;2022-10-16T11:09:26;100641.78;;;18.81;71.54
38227;BME280;24026;49.446;8.576;2022-10-16T11:12:27;100647.13;;;18.86;71.92
38227;BME280;24026;49.446;8.576;2022-10-16T11:14:58;100655.72;;;18.88;71.77
38227;BME280;24026;49.446;8.576;2022-10-16T11:17:31;100650.06;;;18.90;71.42
38227;BME280;24026;49.446;8.576;2022-10-16T11:20:00;100657.22;;;18.94;71.51
38227;BME280;24026;49.446;8.576;2022-10-16T11:22:32;100662.34;;;18.96;71.09
38227;BME280;24026;49.446;8.576;2022-10-16T11:27:35;100660.69;;;19.00;71.53
38227;BME280;24026;49.446;8.576;2022-10-16T11:30:02;100661.47;;;19.00;70.95
38227;BME280;24026;49.446;8.576;2022-10-16T11:32:32;100659.00;;;19.04;70.92
38227;BME280;24026;49.446;8.576;2022-10-16T11:35:05;100659.50;;;19.06;71.24
38227;BME280;24026;49.446;8.576;2022-10-16T11:37:37;100656.50;;;19.07;71.25
38227;BME280;24026;49.446;8.576;2022-10-16T11:40:14;100648.97;;;19.10;70.97
38227;BME280;24026;49.446;8.576;2022-10-16T11:42:41;100653.72;;;19.13;71.04
38227;BME280;24026;49.446;8.576;2022-10-16T11:45:23;100642.38;;;19.16;71.06
38227;BME280;24026;49.446;8.576;2022-10-16T11:47:51;100638.31;;;19.18;71.10
38227;BME280;24026;49.446;8.576;2022-10-16T11:50:23;100646.09;;;19.20;70.64
38227;BME280;24026;49.446;8.576;2022-10-16T11:55:20;100641.50;;;19.20;70.77
38227;BME280;24026;49.446;8.576;2022-10-16T11:57:48;100649.31;;;19.22;70.75
38227;BME280;24026;49.446;8.576;2022-10-16T12:00:20;100657.38;;;19.22;70.54
38227;BME280;24026;49.446;8.576;2022-10-16T12:02:56;100652.78;;;19.22;70.62
38227;BME280;24026;49.446;8.576;2022-10-16T12:05:25;100654.41;;;19.23;70.77
38227;BME280;24026;49.446;8.576;2022-10-16T12:08:10;100649.00;;;19.23;70.84
38227;BME280;24026;49.446;8.576;2022-10-16T12:10:31;100652.50;;;19.24;70.62
38227;BME280;24026;49.446;8.576;2022-10-16T12:12:57;100647.94;;;19.24;70.50
38227;BME280;24026;49.446;8.576;2022-10-16T12:15:27;100652.50;;;19.24;70.63
38227;BME280;24026;49.446;8.576;2022-10-16T12:17:49;100651.41;;;19.25;70.58
38227;BME280;24026;49.446;8.576;2022-10-16T12:22:33;100654.59;;;19.27;70.64
38227;BME280;24026;49.446;8.576;2022-10-16T12:24:54;100643.81;;;19.27;70.35
38227;BME280;24026;49.446;8.576;2022-10-16T12:27:31;100634.13;;;19.26;70.32
38227;BME280;24026;49.446;8.576;2022-10-16T12:30:04;100640.34;;;19.27;70.27
38227;BME280;24026;49.446;8.576;2022-10-16T12:32:35;100637.34;;;19.28;70.63
38227;BME280;24026;49.446;8.576;2022-10-16T12:34:56;100638.44;;;19.27;70.50
38227;BME280;24026;49.446;8.576;2022-10-16T12:37:29;100625.75;;;19.28;70.65
38227;BME280;24026;49.446;8.576;2022-10-16T12:39:54;100634.13;;;19.26;70.34
38227;BME280;24026;49.446;8.576;2022-10-16T12:44:48;100628.75;;;19.26;70.66
38227;BME280;24026;49.446;8.576;2022-10-16T12:47:46;100629.56;;;19.27;70.66
38227;BME280;24026;49.446;8.576;2022-10-16T12:50:03;100619.09;;;19.25;70.70
38227;BME280;24026;49.446;8.576;2022-10-16T12:54:46;100636.53;;;19.28;70.45
38227;BME280;24026;49.446;8.576;2022-10-16T13:02:57;100635.47;;;19.29;70.56
38227;BME280;24026;49.446;8.576;2022-10-16T13:05:35;100633.56;;;19.29;70.18
38227;BME280;24026;49.446;8.576;2022-10-16T13:16:03;100650.84;;;19.28;70.26
38227;BME280;24026;49.446;8.576;2022-10-16T13:18:36;100648.13;;;19.28;70.58
38227;BME280;24026;49.446;8.576;2022-10-16T13:24:06;100647.31;;;19.28;70.51
38227;BME280;24026;49.446;8.576;2022-10-16T13:26:43;100646.53;;;19.27;70.63
38227;BME280;24026;49.446;8.576;2022-10-16T13:29:06;100653.53;;;19.28;70.51
38227;BME280;24026;49.446;8.576;2022-10-16T13:31:27;100661.31;;;19.30;70.44
38227;BME280;24026;49.446;8.576;2022-10-16T13:33:54;100661.31;;;19.30;70.53
38227;BME280;24026;49.446;8.576;2022-10-16T13:36:21;100657.81;;;19.29;70.42
38227;BME280;24026;49.446;8.576;2022-10-16T13:38:41;100646.53;;;19.27;70.28
38227;BME280;24026;49.446;8.576;2022-10-16T13:41:14;100648.13;;;19.28;70.20
38227;BME280;24026;49.446;8.576;2022-10-16T13:43:49;100658.09;;;19.28;70.38
38227;BME280;24026;49.446;8.576;2022-10-16T13:46:22;100670.78;;;19.27;70.28